Disclaimer

Please do not use the information listed here in-flight or in-navigation, as they are not provided to us by the airports but are provided by volunteers, so they might be outdated.

Search


Regions


Airport information page

Radio informations:
VITORIA TWR - 118.1 MHz
VITORIA ATIS - 127.575 MHz
VITORIA APP - 119.85 MHz

Airport informations:
Latitude: 20° 15' 29.00" S
Longitude: 040° 17' 11.00" W
Elevation: 11 feet - 3 meters
Operating hours: 24 hour operations
Operating agency: Civil government, landing fees and diplomatic clearance may be required
Timezone: UTC-3(-2DT)
Fuel: Jet A1, without icing nhibitor.

100/130 octane gasoline, leaded, MIL-L-5572F (GREEN)

Runway information:
05/23 - 5741 x 148 feet< - >1750 x 45 meters

Recent METARs:
SBVT 190400Z 01012KT 9999 SCT025 26/23 Q1014
SBVT 190400Z 01012KT 9999 SCT025 26/23 Q1014
SBVT 190500Z 36010KT 9999 SCT030 26/23 Q1013

Airport on the map: